sensor_id;sensor_type;location;lat;lon;timestamp;temperature;humidity
52965;DHT22;42923;53.220;6.528;2022-11-20T00:00:24;-0.30;99.90
52965;DHT22;42923;53.220;6.528;2022-11-20T00:02:50;-0.30;99.90
52965;DHT22;42923;53.220;6.528;2022-11-20T00:05:16;-0.30;99.90
52965;DHT22;42923;53.220;6.528;2022-11-20T00:07:42;-0.30;99.90
52965;DHT22;42923;53.220;6.528;2022-11-20T00:10:08;-0.30;99.90
52965;DHT22;42923;53.220;6.528;2022-11-20T00:12:34;-0.30;99.90
52965;DHT22;42923;53.220;6.528;2022-11-20T00:15:00;-0.30;99.90
52965;DHT22;42923;53.220;6.528;2022-11-20T00:17:25;-0.20;99.90
52965;DHT22;42923;53.220;6.528;2022-11-20T00:19:51;-0.30;99.90
52965;DHT22;42923;53.220;6.528;2022-11-20T00:22:17;-0.30;99.90
52965;DHT22;42923;53.220;6.528;2022-11-20T00:24:42;-0.30;99.90
52965;DHT22;42923;53.220;6.528;2022-11-20T00:27:08;-0.30;99.90
52965;DHT22;42923;53.220;6.528;2022-11-20T00:29:34;-0.30;99.90
52965;DHT22;42923;53.220;6.528;2022-11-20T00:32:00;-0.30;99.90
52965;DHT22;42923;53.220;6.528;2022-11-20T00:34:25;-0.30;99.90
52965;DHT22;42923;53.220;6.528;2022-11-20T00:36:51;-0.20;99.90
52965;DHT22;42923;53.220;6.528;2022-11-20T00:39:17;-0.20;99.90
52965;DHT22;42923;53.220;6.528;2022-11-20T00:41:42;-0.20;99.90
52965;DHT22;42923;53.220;6.528;2022-11-20T00:44:08;-0.20;99.90
52965;DHT22;42923;53.220;6.528;2022-11-20T00:46:34;-0.20;99.90
52965;DHT22;42923;53.220;6.528;2022-11-20T00:48:59;-0.20;99.90
52965;DHT22;42923;53.220;6.528;2022-11-20T00:51:26;-0.20;99.90
52965;DHT22;42923;53.220;6.528;2022-11-20T00:53:55;-0.20;99.90
52965;DHT22;42923;53.220;6.528;2022-11-20T00:56:21;-0.20;99.90
52965;DHT22;42923;53.220;6.528;2022-11-20T00:58:47;-0.20;99.90
52965;DHT22;42923;53.220;6.528;2022-11-20T01:01:16;-0.20;99.90
52965;DHT22;42923;53.220;6.528;2022-11-20T01:03:47;-0.10;99.90
52965;DHT22;42923;53.220;6.528;2022-11-20T01:06:16;-0.10;99.90
52965;DHT22;42923;53.220;6.528;2022-11-20T01:08:42;-0.10;99.90
52965;DHT22;42923;53.220;6.528;2022-11-20T01:11:14;-0.10;99.90
52965;DHT22;42923;53.220;6.528;2022-11-20T01:13:40;-0.10;99.90
52965;DHT22;42923;53.220;6.528;2022-11-20T01:16:18;-0.10;99.90
52965;DHT22;42923;53.220;6.528;2022-11-20T01:18:47;-0.10;99.90
52965;DHT22;42923;53.220;6.528;2022-11-20T01:21:22;0.00;99.90
52965;DHT22;42923;53.220;6.528;2022-11-20T01:23:49;0.00;99.90
52965;DHT22;42923;53.220;6.528;2022-11-20T01:26:18;0.00;99.90
52965;DHT22;42923;53.220;6.528;2022-11-20T01:28:44;0.00;99.90
52965;DHT22;42923;53.220;6.528;2022-11-20T01:31:15;0.00;99.90
52965;DHT22;42923;53.220;6.528;2022-11-20T01:33:41;0.10;99.90
52965;DHT22;42923;53.220;6.528;2022-11-20T01:36:08;0.10;99.90
52965;DHT22;42923;53.220;6.528;2022-11-20T01:38:34;0.10;99.90
52965;DHT22;42923;53.220;6.528;2022-11-20T01:41:00;0.10;99.90
52965;DHT22;42923;53.220;6.528;2022-11-20T01:46:13;0.10;99.90
52965;DHT22;42923;53.220;6.528;2022-11-20T01:49:04;0.10;99.90
52965;DHT22;42923;53.220;6.528;2022-11-20T01:51:44;0.10;99.90
52965;DHT22;42923;53.220;6.528;2022-11-20T01:54:16;0.10;99.90
52965;DHT22;42923;53.220;6.528;2022-11-20T01:56:44;0.20;99.90
52965;DHT22;42923;53.220;6.528;2022-11-20T01:59:13;0.20;99.90
52965;DHT22;42923;53.220;6.528;2022-11-20T02:01:39;0.20;99.90
52965;DHT22;42923;53.220;6.528;2022-11-20T02:04:07;0.10;99.90
52965;DHT22;42923;53.220;6.528;2022-11-20T02:06:48;0.20;99.90
52965;DHT22;42923;53.220;6.528;2022-11-20T02:09:15;0.20;99.90
52965;DHT22;42923;53.220;6.528;2022-11-20T02:11:41;0.20;99.90
52965;DHT22;42923;53.220;6.528;2022-11-20T02:14:08;0.20;99.90
52965;DHT22;42923;53.220;6.528;2022-11-20T02:16:39;0.20;99.90
52965;DHT22;42923;53.220;6.528;2022-11-20T02:19:08;0.20;99.90
52965;DHT22;42923;53.220;6.528;2022-11-20T02:21:37;0.20;99.90
52965;DHT22;42923;53.220;6.528;2022-11-20T02:24:05;0.20;99.90
52965;DHT22;42923;53.220;6.528;2022-11-20T02:26:53;0.20;99.90
52965;DHT22;42923;53.220;6.528;2022-11-20T02:29:25;0.20;99.90
52965;DHT22;42923;53.220;6.528;2022-11-20T02:31:52;0.20;99.90
52965;DHT22;42923;53.220;6.528;2022-11-20T02:34:19;0.20;99.90
52965;DHT22;42923;53.220;6.528;2022-11-20T02:36:46;0.20;99.90
52965;DHT22;42923;53.220;6.528;2022-11-20T02:39:13;0.20;99.90
52965;DHT22;42923;53.220;6.528;2022-11-20T02:41:42;0.20;99.90
52965;DHT22;42923;53.220;6.528;2022-11-20T02:44:08;0.20;99.90
52965;DHT22;42923;53.220;6.528;2022-11-20T02:46:34;0.20;99.90
52965;DHT22;42923;53.220;6.528;2022-11-20T02:49:04;0.30;99.90
52965;DHT22;42923;53.220;6.528;2022-11-20T02:51:30;0.30;99.90
52965;DHT22;42923;53.220;6.528;2022-11-20T02:53:57;0.30;99.90
52965;DHT22;42923;53.220;6.528;2022-11-20T02:56:23;0.30;99.90
52965;DHT22;42923;53.220;6.528;2022-11-20T02:58:48;0.30;99.90
52965;DHT22;42923;53.220;6.528;2022-11-20T03:01:14;0.30;99.90
52965;DHT22;42923;53.220;6.528;2022-11-20T03:03:40;0.30;99.90
52965;DHT22;42923;53.220;6.528;2022-11-20T03:06:06;0.30;99.90
52965;DHT22;42923;53.220;6.528;2022-11-20T03:08:31;0.40;99.90
52965;DHT22;42923;53.220;6.528;2022-11-20T03:11:02;0.40;99.90
52965;DHT22;42923;53.220;6.528;2022-11-20T03:13:28;0.40;99.90
52965;DHT22;42923;53.220;6.528;2022-11-20T03:15:54;0.40;99.90
52965;DHT22;42923;53.220;6.528;2022-11-20T03:18:19;0.40;99.90
52965;DHT22;42923;53.220;6.528;2022-11-20T03:20:45;0.40;99.90
52965;DHT22;42923;53.220;6.528;2022-11-20T03:23:11;0.40;99.90
52965;DHT22;42923;53.220;6.528;2022-11-20T03:25:36;0.40;99.90
52965;DHT22;42923;53.220;6.528;2022-11-20T03:28:02;0.40;99.90
52965;DHT22;42923;53.220;6.528;2022-11-20T03:30:28;0.40;99.90
52965;DHT22;42923;53.220;6.528;2022-11-20T03:32:54;0.40;99.90
52965;DHT22;42923;53.220;6.528;2022-11-20T03:35:19;0.40;99.90
52965;DHT22;42923;53.220;6.528;2022-11-20T03:37:45;0.40;99.90
52965;DHT22;42923;53.220;6.528;2022-11-20T03:40:11;0.40;99.90
52965;DHT22;42923;53.220;6.528;2022-11-20T03:42:37;0.40;99.90
52965;DHT22;42923;53.220;6.528;2022-11-20T03:45:13;0.40;99.90
52965;DHT22;42923;53.220;6.528;2022-11-20T03:47:39;0.40;99.90
52965;DHT22;42923;53.220;6.528;2022-11-20T03:50:06;0.40;99.90
52965;DHT22;42923;53.220;6.528;2022-11-20T03:52:31;0.40;99.90
52965;DHT22;42923;53.220;6.528;2022-11-20T03:54:57;0.40;99.90
52965;DHT22;42923;53.220;6.528;2022-11-20T03:57:23;0.40;99.90
52965;DHT22;42923;53.220;6.528;2022-11-20T03:59:49;0.40;99.90
52965;DHT22;42923;53.220;6.528;2022-11-20T04:02:14;0.40;99.90
52965;DHT22;42923;53.220;6.528;2022-11-20T04:04:40;0.40;99.90
52965;DHT22;42923;53.220;6.528;2022-11-20T04:07:06;0.40;99.90
52965;DHT22;42923;53.220;6.528;2022-11-20T04:09:31;0.40;99.90
52965;DHT22;42923;53.220;6.528;2022-11-20T04:11:57;0.40;99.90
52965;DHT22;42923;53.220;6.528;2022-11-20T04:14:23;0.40;99.90
52965;DHT22;42923;53.220;6.528;2022-11-20T04:16:48;0.40;99.90
52965;DHT22;42923;53.220;6.528;2022-11-20T04:19:15;0.40;99.90
52965;DHT22;42923;53.220;6.528;2022-11-20T04:21:42;0.40;99.90
52965;DHT22;42923;53.220;6.528;2022-11-20T04:24:08;0.40;99.90
52965;DHT22;42923;53.220;6.528;2022-11-20T04:26:36;0.40;99.90
52965;DHT22;42923;53.220;6.528;2022-11-20T04:29:02;0.40;99.90
52965;DHT22;42923;53.220;6.528;2022-11-20T04:31:31;0.40;99.90
52965;DHT22;42923;53.220;6.528;2022-11-20T04:34:02;0.40;99.90
52965;DHT22;42923;53.220;6.528;2022-11-20T04:36:29;0.40;99.90
52965;DHT22;42923;53.220;6.528;2022-11-20T04:39:01;0.40;99.90
52965;DHT22;42923;53.220;6.528;2022-11-20T04:41:29;0.40;99.90
52965;DHT22;42923;53.220;6.528;2022-11-20T04:43:59;0.40;99.90
52965;DHT22;42923;53.220;6.528;2022-11-20T04:46:28;0.40;99.90
52965;DHT22;42923;53.220;6.528;2022-11-20T04:48:55;0.40;99.90
52965;DHT22;42923;53.220;6.528;2022-11-20T04:51:21;0.40;99.90
52965;DHT22;42923;53.220;6.528;2022-11-20T04:53:46;0.40;99.90
52965;DHT22;42923;53.220;6.528;2022-11-20T04:56:13;0.40;99.90
52965;DHT22;42923;53.220;6.528;2022-11-20T04:58:39;0.40;99.90
52965;DHT22;42923;53.220;6.528;2022-11-20T05:01:14;0.40;99.90
52965;DHT22;42923;53.220;6.528;2022-11-20T05:03:41;0.40;99.90
52965;DHT22;42923;53.220;6.528;2022-11-20T05:06:07;0.40;99.90
52965;DHT22;42923;53.220;6.528;2022-11-20T05:08:34;0.40;99.90
52965;DHT22;42923;53.220;6.528;2022-11-20T05:11:05;1.60;99.90
52965;DHT22;42923;53.220;6.528;2022-11-20T05:13:31;0.90;99.90
52965;DHT22;42923;53.220;6.528;2022-11-20T05:16:08;0.40;99.90
52965;DHT22;42923;53.220;6.528;2022-11-20T05:18:35;0.40;99.90
52965;DHT22;42923;53.220;6.528;2022-11-20T05:21:01;0.40;99.90
52965;DHT22;42923;53.220;6.528;2022-11-20T05:23:28;0.40;99.90
52965;DHT22;42923;53.220;6.528;2022-11-20T05:25:55;0.50;99.90
52965;DHT22;42923;53.220;6.528;2022-11-20T05:28:21;0.40;99.90
52965;DHT22;42923;53.220;6.528;2022-11-20T05:30:47;0.50;99.90
52965;DHT22;42923;53.220;6.528;2022-11-20T05:33:13;0.50;99.90
52965;DHT22;42923;53.220;6.528;2022-11-20T05:35:39;0.50;99.90
52965;DHT22;42923;53.220;6.528;2022-11-20T05:38:05;0.50;99.90
52965;DHT22;42923;53.220;6.528;2022-11-20T05:40:31;0.50;99.90
52965;DHT22;42923;53.220;6.528;2022-11-20T05:42:56;0.50;99.90
52965;DHT22;42923;53.220;6.528;2022-11-20T05:45:22;0.50;99.90
52965;DHT22;42923;53.220;6.528;2022-11-20T05:47:48;0.50;99.90
52965;DHT22;42923;53.220;6.528;2022-11-20T05:50:14;0.50;99.90
52965;DHT22;42923;53.220;6.528;2022-11-20T05:52:41;0.50;99.90
52965;DHT22;42923;53.220;6.528;2022-11-20T05:55:07;0.50;99.90
52965;DHT22;42923;53.220;6.528;2022-11-20T05:57:33;0.50;99.90
52965;DHT22;42923;53.220;6.528;2022-11-20T05:59:58;0.50;99.90
52965;DHT22;42923;53.220;6.528;2022-11-20T06:02:24;0.50;99.90
52965;DHT22;42923;53.220;6.528;2022-11-20T06:04:50;0.50;99.90
52965;DHT22;42923;53.220;6.528;2022-11-20T06:07:16;0.50;99.90
52965;DHT22;42923;53.220;6.528;2022-11-20T06:09:41;0.60;99.90
52965;DHT22;42923;53.220;6.528;2022-11-20T06:12:07;0.50;99.90
52965;DHT22;42923;53.220;6.528;2022-11-20T06:14:33;0.50;99.90
52965;DHT22;42923;53.220;6.528;2022-11-20T06:16:59;0.50;99.90
52965;DHT22;42923;53.220;6.528;2022-11-20T06:19:24;0.50;99.90
52965;DHT22;42923;53.220;6.528;2022-11-20T06:21:50;0.60;99.90
52965;DHT22;42923;53.220;6.528;2022-11-20T06:24:16;0.50;99.90
52965;DHT22;42923;53.220;6.528;2022-11-20T06:26:42;0.60;99.90
52965;DHT22;42923;53.220;6.528;2022-11-20T06:29:08;0.60;99.90
52965;DHT22;42923;53.220;6.528;2022-11-20T06:31:34;0.60;99.90
52965;DHT22;42923;53.220;6.528;2022-11-20T06:34:03;0.60;99.90
52965;DHT22;42923;53.220;6.528;2022-11-20T06:36:29;0.60;99.90
52965;DHT22;42923;53.220;6.528;2022-11-20T06:38:55;0.60;99.90
52965;DHT22;42923;53.220;6.528;2022-11-20T06:41:22;0.60;99.90
52965;DHT22;42923;53.220;6.528;2022-11-20T06:43:48;0.70;99.90
52965;DHT22;42923;53.220;6.528;2022-11-20T06:46:15;0.70;99.90
52965;DHT22;42923;53.220;6.528;2022-11-20T06:48:43;0.70;99.90
52965;DHT22;42923;53.220;6.528;2022-11-20T06:51:09;0.70;99.90
52965;DHT22;42923;53.220;6.528;2022-11-20T06:53:35;0.70;99.90
52965;DHT22;42923;53.220;6.528;2022-11-20T06:56:02;0.70;99.90
52965;DHT22;42923;53.220;6.528;2022-11-20T06:58:29;0.80;99.90
52965;DHT22;42923;53.220;6.528;2022-11-20T07:01:02;0.80;99.90
52965;DHT22;42923;53.220;6.528;2022-11-20T07:03:28;0.80;99.90
52965;DHT22;42923;53.220;6.528;2022-11-20T07:05:55;0.80;99.90
52965;DHT22;42923;53.220;6.528;2022-11-20T07:08:21;0.80;99.90
52965;DHT22;42923;53.220;6.528;2022-11-20T07:10:47;0.90;99.90
52965;DHT22;42923;53.220;6.528;2022-11-20T07:13:13;0.90;99.90
52965;DHT22;42923;53.220;6.528;2022-11-20T07:15:39;0.90;99.90
52965;DHT22;42923;53.220;6.528;2022-11-20T07:18:05;0.90;99.90
52965;DHT22;42923;53.220;6.528;2022-11-20T07:20:30;0.90;99.90
52965;DHT22;42923;53.220;6.528;2022-11-20T07:22:57;0.90;99.90
52965;DHT22;42923;53.220;6.528;2022-11-20T07:25:24;0.90;99.90
52965;DHT22;42923;53.220;6.528;2022-11-20T07:27:50;2.00;99.90
52965;DHT22;42923;53.220;6.528;2022-11-20T07:30:16;0.90;99.90
52965;DHT22;42923;53.220;6.528;2022-11-20T07:32:42;0.90;99.90
52965;DHT22;42923;53.220;6.528;2022-11-20T07:35:08;0.90;99.90
52965;DHT22;42923;53.220;6.528;2022-11-20T07:37:34;0.90;99.90
52965;DHT22;42923;53.220;6.528;2022-11-20T07:40:00;0.90;99.90
52965;DHT22;42923;53.220;6.528;2022-11-20T07:42:26;0.90;99.90
52965;DHT22;42923;53.220;6.528;2022-11-20T07:44:51;0.90;99.90
52965;DHT22;42923;53.220;6.528;2022-11-20T07:47:17;0.90;99.90
52965;DHT22;42923;53.220;6.528;2022-11-20T07:49:43;0.90;99.90
52965;DHT22;42923;53.220;6.528;2022-11-20T07:52:08;0.90;99.90
52965;DHT22;42923;53.220;6.528;2022-11-20T07:54:34;1.00;99.90
52965;DHT22;42923;53.220;6.528;2022-11-20T07:57:00;1.00;99.90
52965;DHT22;42923;53.220;6.528;2022-11-20T07:59:25;1.00;99.90
52965;DHT22;42923;53.220;6.528;2022-11-20T08:01:51;1.00;99.90
52965;DHT22;42923;53.220;6.528;2022-11-20T08:04:17;1.00;99.90
52965;DHT22;42923;53.220;6.528;2022-11-20T08:06:42;1.10;99.90
52965;DHT22;42923;53.220;6.528;2022-11-20T08:09:08;1.10;99.90
52965;DHT22;42923;53.220;6.528;2022-11-20T08:11:34;1.10;99.90
52965;DHT22;42923;53.220;6.528;2022-11-20T08:14:19;1.10;99.90
52965;DHT22;42923;53.220;6.528;2022-11-20T08:16:46;1.10;99.90
52965;DHT22;42923;53.220;6.528;2022-11-20T08:19:13;1.20;99.90
52965;DHT22;42923;53.220;6.528;2022-11-20T08:21:39;1.20;99.90
52965;DHT22;42923;53.220;6.528;2022-11-20T08:24:06;1.20;99.90
52965;DHT22;42923;53.220;6.528;2022-11-20T08:26:32;1.20;99.90
52965;DHT22;42923;53.220;6.528;2022-11-20T08:28:58;1.20;99.90
52965;DHT22;42923;53.220;6.528;2022-11-20T08:31:25;1.20;99.90
52965;DHT22;42923;53.220;6.528;2022-11-20T08:33:51;1.20;99.90
52965;DHT22;42923;53.220;6.528;2022-11-20T08:36:18;1.30;99.90
52965;DHT22;42923;53.220;6.528;2022-11-20T08:38:48;1.30;99.90
52965;DHT22;42923;53.220;6.528;2022-11-20T08:41:14;1.30;99.90
52965;DHT22;42923;53.220;6.528;2022-11-20T08:43:49;1.30;99.90
52965;DHT22;42923;53.220;6.528;2022-11-20T08:46:16;1.30;99.90
52965;DHT22;42923;53.220;6.528;2022-11-20T08:48:43;1.30;99.90
52965;DHT22;42923;53.220;6.528;2022-11-20T08:51:09;1.30;99.90
52965;DHT22;42923;53.220;6.528;2022-11-20T08:53:35;1.30;99.90
52965;DHT22;42923;53.220;6.528;2022-11-20T08:56:01;1.30;99.90
52965;DHT22;42923;53.220;6.528;2022-11-20T08:58:26;1.40;99.90
52965;DHT22;42923;53.220;6.528;2022-11-20T09:00:52;1.40;99.90
52965;DHT22;42923;53.220;6.528;2022-11-20T09:03:18;1.40;99.90
52965;DHT22;42923;53.220;6.528;2022-11-20T09:05:44;1.50;99.90
52965;DHT22;42923;53.220;6.528;2022-11-20T09:08:10;1.50;99.90
52965;DHT22;42923;53.220;6.528;2022-11-20T09:10:36;1.50;99.90
52965;DHT22;42923;53.220;6.528;2022-11-20T09:13:05;1.50;99.90
52965;DHT22;42923;53.220;6.528;2022-11-20T09:15:31;1.50;99.90
52965;DHT22;42923;53.220;6.528;2022-11-20T09:18:01;1.50;99.90
52965;DHT22;42923;53.220;6.528;2022-11-20T09:20:29;1.50;99.90
52965;DHT22;42923;53.220;6.528;2022-11-20T09:22:55;1.50;99.90
52965;DHT22;42923;53.220;6.528;2022-11-20T09:25:21;1.50;99.90
52965;DHT22;42923;53.220;6.528;2022-11-20T09:27:47;1.50;99.90
52965;DHT22;42923;53.220;6.528;2022-11-20T09:30:14;1.50;99.90
52965;DHT22;42923;53.220;6.528;2022-11-20T09:32:40;2.10;99.90
52965;DHT22;42923;53.220;6.528;2022-11-20T09:35:06;1.50;99.90
52965;DHT22;42923;53.220;6.528;2022-11-20T09:37:32;1.50;99.90
52965;DHT22;42923;53.220;6.528;2022-11-20T09:39:58;1.50;99.90
52965;DHT22;42923;53.220;6.528;2022-11-20T09:42:35;1.50;99.90
52965;DHT22;42923;53.220;6.528;2022-11-20T09:55:47;1.70;99.90
52965;DHT22;42923;53.220;6.528;2022-11-20T09:58:31;1.70;99.90
52965;DHT22;42923;53.220;6.528;2022-11-20T10:01:09;1.70;99.90
52965;DHT22;42923;53.220;6.528;2022-11-20T10:03:45;1.70;99.90
52965;DHT22;42923;53.220;6.528;2022-11-20T10:06:17;1.80;99.90
52965;DHT22;42923;53.220;6.528;2022-11-20T10:09:16;1.80;99.90
52965;DHT22;42923;53.220;6.528;2022-11-20T10:21:16;2.10;99.90
52965;DHT22;42923;53.220;6.528;2022-11-20T10:29:13;2.20;99.90
52965;DHT22;42923;53.220;6.528;2022-11-20T10:31:42;2.20;99.90
52965;DHT22;42923;53.220;6.528;2022-11-20T10:34:15;2.30;99.90
52965;DHT22;42923;53.220;6.528;2022-11-20T10:36:49;2.30;99.90
52965;DHT22;42923;53.220;6.528;2022-11-20T10:41:45;2.50;99.90
52965;DHT22;42923;53.220;6.528;2022-11-20T10:44:19;2.60;99.90
52965;DHT22;42923;53.220;6.528;2022-11-20T10:47:05;2.70;99.90
52965;DHT22;42923;53.220;6.528;2022-11-20T10:49:33;2.90;99.90
52965;DHT22;42923;53.220;6.528;2022-11-20T10:54:48;3.50;99.90
52965;DHT22;42923;53.220;6.528;2022-11-20T11:00:03;5.30;99.90
52965;DHT22;42923;53.220;6.528;2022-11-20T11:02:39;5.70;99.90
52965;DHT22;42923;53.220;6.528;2022-11-20T11:07:45;5.30;99.90
52965;DHT22;42923;53.220;6.528;2022-11-20T11:10:21;5.90;99.90
52965;DHT22;42923;53.220;6.528;2022-11-20T11:12:48;5.10;99.90
52965;DHT22;42923;53.220;6.528;2022-11-20T11:15:28;4.80;99.90
52965;DHT22;42923;53.220;6.528;2022-11-20T11:17:55;4.60;99.90
52965;DHT22;42923;53.220;6.528;2022-11-20T11:20:23;4.30;99.90
52965;DHT22;42923;53.220;6.528;2022-11-20T11:22:54;4.10;99.90
52965;DHT22;42923;53.220;6.528;2022-11-20T11:25:22;3.90;99.90
52965;DHT22;42923;53.220;6.528;2022-11-20T11:27:49;3.70;99.90
52965;DHT22;42923;53.220;6.528;2022-11-20T11:30:17;3.50;99.90
52965;DHT22;42923;53.220;6.528;2022-11-20T11:32:43;3.30;99.90
52965;DHT22;42923;53.220;6.528;2022-11-20T11:35:27;3.20;99.90
52965;DHT22;42923;53.220;6.528;2022-11-20T11:38:01;3.20;99.90
52965;DHT22;42923;53.220;6.528;2022-11-20T11:40:29;3.20;99.90
52965;DHT22;42923;53.220;6.528;2022-11-20T11:43:02;3.20;99.90
52965;DHT22;42923;53.220;6.528;2022-11-20T11:45:29;3.20;99.90
52965;DHT22;42923;53.220;6.528;2022-11-20T11:48:00;3.10;99.90
52965;DHT22;42923;53.220;6.528;2022-11-20T11:50:29;3.00;99.90
52965;DHT22;42923;53.220;6.528;2022-11-20T11:55:50;2.80;99.90
52965;DHT22;42923;53.220;6.528;2022-11-20T12:01:08;2.70;99.90
52965;DHT22;42923;53.220;6.528;2022-11-20T12:03:38;2.80;99.90
52965;DHT22;42923;53.220;6.528;2022-11-20T12:06:14;2.70;99.90
52965;DHT22;42923;53.220;6.528;2022-11-20T12:09:02;2.90;99.90
52965;DHT22;42923;53.220;6.528;2022-11-20T12:14:47;3.20;99.90
52965;DHT22;42923;53.220;6.528;2022-11-20T12:17:15;3.50;99.90
52965;DHT22;42923;53.220;6.528;2022-11-20T12:19:41;3.90;99.90
52965;DHT22;42923;53.220;6.528;2022-11-20T12:22:29;4.30;99.90
52965;DHT22;42923;53.220;6.528;2022-11-20T12:25:45;4.80;99.90
52965;DHT22;42923;53.220;6.528;2022-11-20T12:31:10;5.30;99.90
52965;DHT22;42923;53.220;6.528;2022-11-20T12:33:55;5.80;99.90
52965;DHT22;42923;53.220;6.528;2022-11-20T12:37:26;6.00;99.90
52965;DHT22;42923;53.220;6.528;2022-11-20T12:39:31;6.00;99.90
52965;DHT22;42923;53.220;6.528;2022-11-20T12:42:27;5.90;99.90
52965;DHT22;42923;53.220;6.528;2022-11-20T12:59:03;4.30;99.90
52965;DHT22;42923;53.220;6.528;2022-11-20T13:07:18;4.00;99.90
52965;DHT22;42923;53.220;6.528;2022-11-20T13:09:47;4.00;99.90
52965;DHT22;42923;53.220;6.528;2022-11-20T13:12:33;4.00;99.90
52965;DHT22;42923;53.220;6.528;2022-11-20T13:15:27;4.00;99.90
52965;DHT22;42923;53.220;6.528;2022-11-20T13:17:59;3.90;99.90
52965;DHT22;42923;53.220;6.528;2022-11-20T13:20:27;3.90;99.90
52965;DHT22;42923;53.220;6.528;2022-11-20T13:22:55;3.90;99.90
52965;DHT22;42923;53.220;6.528;2022-11-20T13:25:30;3.90;99.90
52965;DHT22;42923;53.220;6.528;2022-11-20T13:28:00;4.00;99.90
52965;DHT22;42923;53.220;6.528;2022-11-20T13:30:27;4.00;99.90
52965;DHT22;42923;53.220;6.528;2022-11-20T13:35:29;4.30;99.90
52965;DHT22;42923;53.220;6.528;2022-11-20T13:40:37;4.50;99.90
52965;DHT22;42923;53.220;6.528;2022-11-20T13:43:33;4.40;99.90
52965;DHT22;42923;53.220;6.528;2022-11-20T13:46:05;4.40;99.90
52965;DHT22;42923;53.220;6.528;2022-11-20T13:48:40;4.30;99.90
52965;DHT22;42923;53.220;6.528;2022-11-20T13:56:24;4.10;99.90
52965;DHT22;42923;53.220;6.528;2022-11-20T14:01:46;3.90;99.90
52965;DHT22;42923;53.220;6.528;2022-11-20T14:04:23;3.80;99.90
52965;DHT22;42923;53.220;6.528;2022-11-20T14:06:51;3.80;99.90
52965;DHT22;42923;53.220;6.528;2022-11-20T14:09:31;3.80;99.90
52965;DHT22;42923;53.220;6.528;2022-11-20T14:11:58;3.80;99.90
52965;DHT22;42923;53.220;6.528;2022-11-20T14:14:28;3.80;99.90
52965;DHT22;42923;53.220;6.528;2022-11-20T14:17:06;5.10;99.90
52965;DHT22;42923;53.220;6.528;2022-11-20T14:19:33;3.80;99.90
52965;DHT22;42923;53.220;6.528;2022-11-20T14:24:35;3.70;99.90
52965;DHT22;42923;53.220;6.528;2022-11-20T14:27:01;3.70;99.90
52965;DHT22;42923;53.220;6.528;2022-11-20T14:29:32;3.60;99.90
52965;DHT22;42923;53.220;6.528;2022-11-20T14:32:01;3.90;99.90
52965;DHT22;42923;53.220;6.528;2022-11-20T14:34:30;3.40;99.90
52965;DHT22;42923;53.220;6.528;2022-11-20T14:36:58;3.40;99.90
52965;DHT22;42923;53.220;6.528;2022-11-20T14:41:58;3.20;99.90
52965;DHT22;42923;53.220;6.528;2022-11-20T14:44:31;3.10;99.90
52965;DHT22;42923;53.220;6.528;2022-11-20T14:46:59;3.00;99.90
52965;DHT22;42923;53.220;6.528;2022-11-20T14:49:26;3.70;99.90
52965;DHT22;42923;53.220;6.528;2022-11-20T14:52:02;2.90;99.90
52965;DHT22;42923;53.220;6.528;2022-11-20T14:54:49;3.60;99.90
52965;DHT22;42923;53.220;6.528;2022-11-20T14:57:26;2.80;99.90
52965;DHT22;42923;53.220;6.528;2022-11-20T15:00:17;2.80;99.90
52965;DHT22;42923;53.220;6.528;2022-11-20T15:02:46;2.80;99.90
52965;DHT22;42923;53.220;6.528;2022-11-20T15:05:12;2.70;99.90
52965;DHT22;42923;53.220;6.528;2022-11-20T15:07:41;2.70;99.90
52965;DHT22;42923;53.220;6.528;2022-11-20T15:12:50;2.50;99.90
52965;DHT22;42923;53.220;6.528;2022-11-20T15:15:48;2.50;99.90
52965;DHT22;42923;53.220;6.528;2022-11-20T15:18:17;2.40;99.90
52965;DHT22;42923;53.220;6.528;2022-11-20T15:20:44;2.30;99.90
52965;DHT22;42923;53.220;6.528;2022-11-20T15:23:14;2.20;99.90
52965;DHT22;42923;53.220;6.528;2022-11-20T15:25:41;2.20;99.90
52965;DHT22;42923;53.220;6.528;2022-11-20T15:28:31;2.10;99.90
52965;DHT22;42923;53.220;6.528;2022-11-20T15:30:58;2.00;99.90
52965;DHT22;42923;53.220;6.528;2022-11-20T15:33:24;1.90;99.90
52965;DHT22;42923;53.220;6.528;2022-11-20T15:35:50;1.90;99.90
52965;DHT22;42923;53.220;6.528;2022-11-20T15:38:16;1.90;99.90
52965;DHT22;42923;53.220;6.528;2022-11-20T15:40:41;1.90;99.90
52965;DHT22;42923;53.220;6.528;2022-11-20T15:43:07;1.90;99.90
52965;DHT22;42923;53.220;6.528;2022-11-20T15:45:45;1.90;99.90
52965;DHT22;42923;53.220;6.528;2022-11-20T15:48:18;1.90;99.90
52965;DHT22;42923;53.220;6.528;2022-11-20T15:53:37;1.90;99.90
52965;DHT22;42923;53.220;6.528;2022-11-20T15:56:04;3.40;99.90
52965;DHT22;42923;53.220;6.528;2022-11-20T15:58:30;1.90;99.90
52965;DHT22;42923;53.220;6.528;2022-11-20T16:00:56;1.90;99.90
52965;DHT22;42923;53.220;6.528;2022-11-20T16:03:22;1.90;99.90
52965;DHT22;42923;53.220;6.528;2022-11-20T16:05:48;1.90;99.90
52965;DHT22;42923;53.220;6.528;2022-11-20T16:08:13;1.90;99.90
52965;DHT22;42923;53.220;6.528;2022-11-20T16:10:40;1.90;99.90
52965;DHT22;42923;53.220;6.528;2022-11-20T16:13:12;1.90;99.90
52965;DHT22;42923;53.220;6.528;2022-11-20T16:15:59;1.90;99.90
52965;DHT22;42923;53.220;6.528;2022-11-20T16:18:24;1.90;99.90
52965;DHT22;42923;53.220;6.528;2022-11-20T16:20:54;1.90;99.90
52965;DHT22;42923;53.220;6.528;2022-11-20T16:23:21;1.90;99.90
52965;DHT22;42923;53.220;6.528;2022-11-20T16:25:47;1.90;99.90
52965;DHT22;42923;53.220;6.528;2022-11-20T16:28:13;2.70;99.90
52965;DHT22;42923;53.220;6.528;2022-11-20T16:30:39;1.90;99.90
52965;DHT22;42923;53.220;6.528;2022-11-20T16:33:10;1.90;99.90
52965;DHT22;42923;53.220;6.528;2022-11-20T16:35:37;1.90;99.90
52965;DHT22;42923;53.220;6.528;2022-11-20T16:38:02;1.90;99.90
52965;DHT22;42923;53.220;6.528;2022-11-20T16:40:28;1.90;99.90
52965;DHT22;42923;53.220;6.528;2022-11-20T16:42:54;1.90;99.90
52965;DHT22;42923;53.220;6.528;2022-11-20T16:45:20;1.90;99.90
52965;DHT22;42923;53.220;6.528;2022-11-20T16:47:46;1.90;99.90
52965;DHT22;42923;53.220;6.528;2022-11-20T16:50:11;1.90;99.90
52965;DHT22;42923;53.220;6.528;2022-11-20T16:52:37;1.90;99.90
52965;DHT22;42923;53.220;6.528;2022-11-20T16:55:03;1.90;99.90
52965;DHT22;42923;53.220;6.528;2022-11-20T16:57:30;1.90;99.90
52965;DHT22;42923;53.220;6.528;2022-11-20T16:59:58;1.90;99.90
52965;DHT22;42923;53.220;6.528;2022-11-20T17:02:25;2.60;99.90
52965;DHT22;42923;53.220;6.528;2022-11-20T17:04:51;1.90;99.90
52965;DHT22;42923;53.220;6.528;2022-11-20T17:07:17;1.90;99.90
52965;DHT22;42923;53.220;6.528;2022-11-20T17:09:42;1.90;99.90
52965;DHT22;42923;53.220;6.528;2022-11-20T17:12:08;1.90;99.90
52965;DHT22;42923;53.220;6.528;2022-11-20T17:14:34;1.90;99.90
52965;DHT22;42923;53.220;6.528;2022-11-20T17:17:00;1.90;99.90
52965;DHT22;42923;53.220;6.528;2022-11-20T17:19:26;1.90;99.90
52965;DHT22;42923;53.220;6.528;2022-11-20T17:21:51;1.90;99.90
52965;DHT22;42923;53.220;6.528;2022-11-20T17:24:18;1.90;99.90
52965;DHT22;42923;53.220;6.528;2022-11-20T17:26:44;1.90;99.90
52965;DHT22;42923;53.220;6.528;2022-11-20T17:29:15;1.90;99.90